sensor_id;sensor_type;location;lat;lon;timestamp;P1;durP1;ratioP1;P2;durP2;ratioP2
41229;SDS011;26964;50.428;19.218;2024-03-02T00:00:52;63.8;;;38.6;;
41229;SDS011;26964;50.428;19.218;2024-03-02T00:01:52;60.6;;;37.2;;
41229;SDS011;26964;50.428;19.218;2024-03-02T00:02:52;56.3;;;35.7;;
41229;SDS011;26964;50.428;19.218;2024-03-02T00:03:52;53.7;;;34.7;;
41229;SDS011;26964;50.428;19.218;2024-03-02T00:04:52;55.7;;;34.0;;
41229;SDS011;26964;50.428;19.218;2024-03-02T00:05:52;52.2;;;33.3;;
41229;SDS011;26964;50.428;19.218;2024-03-02T00:06:52;53.6;;;36.1;;
41229;SDS011;26964;50.428;19.218;2024-03-02T00:07:52;63.5;;;40.0;;
41229;SDS011;26964;50.428;19.218;2024-03-02T00:09:52;67.2;;;40.7;;
41229;SDS011;26964;50.428;19.218;2024-03-02T00:10:53;58.6;;;36.6;;
41229;SDS011;26964;50.428;19.218;2024-03-02T00:11:52;51.7;;;33.2;;
41229;SDS011;26964;50.428;19.218;2024-03-02T00:12:53;53.7;;;34.0;;
41229;SDS011;26964;50.428;19.218;2024-03-02T00:13:52;53.3;;;33.1;;
41229;SDS011;26964;50.428;19.218;2024-03-02T00:14:52;52.3;;;32.1;;
41229;SDS011;26964;50.428;19.218;2024-03-02T00:15:52;51.9;;;32.9;;
41229;SDS011;26964;50.428;19.218;2024-03-02T00:16:52;54.1;;;32.8;;
41229;SDS011;26964;50.428;19.218;2024-03-02T00:17:53;53.3;;;33.3;;
41229;SDS011;26964;50.428;19.218;2024-03-02T00:18:52;49.3;;;31.8;;
41229;SDS011;26964;50.428;19.218;2024-03-02T00:19:52;51.1;;;32.3;;
41229;SDS011;26964;50.428;19.218;2024-03-02T00:20:52;54.6;;;32.9;;
41229;SDS011;26964;50.428;19.218;2024-03-02T00:21:52;51.6;;;31.9;;
41229;SDS011;26964;50.428;19.218;2024-03-02T00:22:52;48.9;;;31.9;;
41229;SDS011;26964;50.428;19.218;2024-03-02T00:23:52;49.3;;;32.6;;
41229;SDS011;26964;50.428;19.218;2024-03-02T00:24:52;54.5;;;32.9;;
41229;SDS011;26964;50.428;19.218;2024-03-02T00:25:52;49.9;;;32.1;;
41229;SDS011;26964;50.428;19.218;2024-03-02T00:26:52;47.6;;;30.8;;
41229;SDS011;26964;50.428;19.218;2024-03-02T00:27:52;54.2;;;33.7;;
41229;SDS011;26964;50.428;19.218;2024-03-02T00:28:52;49.4;;;32.1;;
41229;SDS011;26964;50.428;19.218;2024-03-02T00:29:52;53.7;;;33.0;;
41229;SDS011;26964;50.428;19.218;2024-03-02T00:31:52;53.0;;;32.7;;
41229;SDS011;26964;50.428;19.218;2024-03-02T00:32:52;49.2;;;32.5;;
41229;SDS011;26964;50.428;19.218;2024-03-02T00:33:52;51.1;;;33.1;;
41229;SDS011;26964;50.428;19.218;2024-03-02T00:34:52;47.2;;;32.7;;
41229;SDS011;26964;50.428;19.218;2024-03-02T00:35:52;52.1;;;32.0;;
41229;SDS011;26964;50.428;19.218;2024-03-02T00:36:52;49.8;;;31.2;;
41229;SDS011;26964;50.428;19.218;2024-03-02T00:37:52;50.2;;;32.9;;
41229;SDS011;26964;50.428;19.218;2024-03-02T00:38:54;50.0;;;33.3;;
41229;SDS011;26964;50.428;19.218;2024-03-02T00:39:52;53.8;;;33.1;;
41229;SDS011;26964;50.428;19.218;2024-03-02T00:40:52;50.9;;;32.7;;
41229;SDS011;26964;50.428;19.218;2024-03-02T00:41:52;49.2;;;31.7;;
41229;SDS011;26964;50.428;19.218;2024-03-02T00:42:52;50.2;;;31.1;;
41229;SDS011;26964;50.428;19.218;2024-03-02T00:44:52;52.7;;;32.6;;
41229;SDS011;26964;50.428;19.218;2024-03-02T00:45:52;50.4;;;32.1;;
41229;SDS011;26964;50.428;19.218;2024-03-02T00:46:52;56.6;;;33.9;;
41229;SDS011;26964;50.428;19.218;2024-03-02T00:47:52;53.0;;;31.3;;
41229;SDS011;26964;50.428;19.218;2024-03-02T00:48:53;52.9;;;32.8;;
41229;SDS011;26964;50.428;19.218;2024-03-02T00:49:52;49.2;;;31.5;;
41229;SDS011;26964;50.428;19.218;2024-03-02T00:50:52;57.3;;;32.3;;
41229;SDS011;26964;50.428;19.218;2024-03-02T00:51:52;49.4;;;31.2;;
41229;SDS011;26964;50.428;19.218;2024-03-02T00:52:52;49.9;;;31.0;;
41229;SDS011;26964;50.428;19.218;2024-03-02T00:53:52;50.6;;;31.4;;
41229;SDS011;26964;50.428;19.218;2024-03-02T00:54:52;45.2;;;30.3;;
41229;SDS011;26964;50.428;19.218;2024-03-02T00:55:52;48.7;;;31.3;;
41229;SDS011;26964;50.428;19.218;2024-03-02T00:56:52;40.8;;;29.1;;
41229;SDS011;26964;50.428;19.218;2024-03-02T00:57:52;42.6;;;29.1;;
41229;SDS011;26964;50.428;19.218;2024-03-02T00:58:52;44.5;;;29.6;;
41229;SDS011;26964;50.428;19.218;2024-03-02T00:59:53;48.8;;;30.3;;
41229;SDS011;26964;50.428;19.218;2024-03-02T01:00:52;44.2;;;29.9;;
41229;SDS011;26964;50.428;19.218;2024-03-02T01:01:52;43.1;;;29.0;;
41229;SDS011;26964;50.428;19.218;2024-03-02T01:02:51;46.5;;;31.1;;
41229;SDS011;26964;50.428;19.218;2024-03-02T01:03:52;49.2;;;29.6;;
41229;SDS011;26964;50.428;19.218;2024-03-02T01:04:52;46.2;;;29.0;;
41229;SDS011;26964;50.428;19.218;2024-03-02T01:05:52;47.8;;;29.6;;
41229;SDS011;26964;50.428;19.218;2024-03-02T01:06:52;47.1;;;29.5;;
41229;SDS011;26964;50.428;19.218;2024-03-02T01:07:52;47.5;;;30.7;;
41229;SDS011;26964;50.428;19.218;2024-03-02T01:08:52;43.8;;;27.9;;
41229;SDS011;26964;50.428;19.218;2024-03-02T01:09:51;50.3;;;28.7;;
41229;SDS011;26964;50.428;19.218;2024-03-02T01:10:52;45.3;;;28.2;;
41229;SDS011;26964;50.428;19.218;2024-03-02T01:11:52;49.0;;;28.1;;
41229;SDS011;26964;50.428;19.218;2024-03-02T01:12:51;42.6;;;28.5;;
41229;SDS011;26964;50.428;19.218;2024-03-02T01:13:52;44.2;;;29.0;;
41229;SDS011;26964;50.428;19.218;2024-03-02T01:14:52;46.1;;;30.1;;
41229;SDS011;26964;50.428;19.218;2024-03-02T01:15:52;46.2;;;30.2;;
41229;SDS011;26964;50.428;19.218;2024-03-02T01:16:52;42.6;;;27.5;;
41229;SDS011;26964;50.428;19.218;2024-03-02T01:17:52;46.2;;;29.2;;
41229;SDS011;26964;50.428;19.218;2024-03-02T01:18:52;43.0;;;28.1;;
41229;SDS011;26964;50.428;19.218;2024-03-02T01:19:52;43.7;;;28.6;;
41229;SDS011;26964;50.428;19.218;2024-03-02T01:20:54;42.7;;;29.0;;
41229;SDS011;26964;50.428;19.218;2024-03-02T01:21:52;43.6;;;27.9;;
41229;SDS011;26964;50.428;19.218;2024-03-02T01:22:52;49.4;;;29.1;;
41229;SDS011;26964;50.428;19.218;2024-03-02T01:23:52;41.3;;;28.7;;
41229;SDS011;26964;50.428;19.218;2024-03-02T01:24:52;47.4;;;29.2;;
41229;SDS011;26964;50.428;19.218;2024-03-02T01:25:52;42.2;;;28.1;;
41229;SDS011;26964;50.428;19.218;2024-03-02T01:26:51;45.0;;;28.4;;
41229;SDS011;26964;50.428;19.218;2024-03-02T01:27:51;43.7;;;28.1;;
41229;SDS011;26964;50.428;19.218;2024-03-02T01:28:51;47.0;;;28.7;;
41229;SDS011;26964;50.428;19.218;2024-03-02T01:29:52;46.2;;;27.8;;
41229;SDS011;26964;50.428;19.218;2024-03-02T01:30:52;44.9;;;27.7;;
41229;SDS011;26964;50.428;19.218;2024-03-02T01:31:51;45.0;;;27.8;;
41229;SDS011;26964;50.428;19.218;2024-03-02T01:32:51;40.9;;;27.0;;
41229;SDS011;26964;50.428;19.218;2024-03-02T01:33:51;40.2;;;27.4;;
41229;SDS011;26964;50.428;19.218;2024-03-02T01:34:51;42.2;;;27.5;;
41229;SDS011;26964;50.428;19.218;2024-03-02T01:35:52;40.9;;;26.1;;
41229;SDS011;26964;50.428;19.218;2024-03-02T01:36:51;42.0;;;27.7;;
41229;SDS011;26964;50.428;19.218;2024-03-02T01:37:51;38.1;;;25.7;;
41229;SDS011;26964;50.428;19.218;2024-03-02T01:38:51;40.1;;;25.7;;
41229;SDS011;26964;50.428;19.218;2024-03-02T01:39:51;39.2;;;25.9;;
41229;SDS011;26964;50.428;19.218;2024-03-02T01:40:52;42.0;;;26.4;;
41229;SDS011;26964;50.428;19.218;2024-03-02T01:41:54;40.0;;;26.1;;
41229;SDS011;26964;50.428;19.218;2024-03-02T01:42:52;45.0;;;27.7;;
41229;SDS011;26964;50.428;19.218;2024-03-02T01:43:51;43.9;;;29.8;;
41229;SDS011;26964;50.428;19.218;2024-03-02T01:44:51;45.6;;;29.3;;
41229;SDS011;26964;50.428;19.218;2024-03-02T01:45:52;50.6;;;30.0;;
41229;SDS011;26964;50.428;19.218;2024-03-02T01:46:52;48.9;;;31.1;;
41229;SDS011;26964;50.428;19.218;2024-03-02T01:47:52;45.7;;;30.7;;
41229;SDS011;26964;50.428;19.218;2024-03-02T01:48:51;48.3;;;31.6;;
41229;SDS011;26964;50.428;19.218;2024-03-02T01:49:52;45.5;;;30.4;;
41229;SDS011;26964;50.428;19.218;2024-03-02T01:50:52;45.4;;;30.0;;
41229;SDS011;26964;50.428;19.218;2024-03-02T01:51:52;47.5;;;31.7;;
41229;SDS011;26964;50.428;19.218;2024-03-02T01:52:51;49.3;;;32.4;;
41229;SDS011;26964;50.428;19.218;2024-03-02T01:53:51;51.6;;;33.0;;
41229;SDS011;26964;50.428;19.218;2024-03-02T01:54:51;56.9;;;34.3;;
41229;SDS011;26964;50.428;19.218;2024-03-02T01:55:52;52.7;;;33.9;;
41229;SDS011;26964;50.428;19.218;2024-03-02T01:56:51;56.1;;;35.2;;
41229;SDS011;26964;50.428;19.218;2024-03-02T01:57:52;53.2;;;33.8;;
41229;SDS011;26964;50.428;19.218;2024-03-02T01:58:51;50.2;;;31.1;;
41229;SDS011;26964;50.428;19.218;2024-03-02T01:59:52;47.8;;;30.7;;
41229;SDS011;26964;50.428;19.218;2024-03-02T02:00:52;43.8;;;31.0;;
41229;SDS011;26964;50.428;19.218;2024-03-02T02:01:52;53.1;;;34.4;;
41229;SDS011;26964;50.428;19.218;2024-03-02T02:02:54;49.6;;;31.1;;
41229;SDS011;26964;50.428;19.218;2024-03-02T02:03:52;48.6;;;30.9;;
41229;SDS011;26964;50.428;19.218;2024-03-02T02:04:52;50.3;;;29.8;;
41229;SDS011;26964;50.428;19.218;2024-03-02T02:05:52;44.3;;;27.4;;
41229;SDS011;26964;50.428;19.218;2024-03-02T02:06:51;42.0;;;26.9;;
41229;SDS011;26964;50.428;19.218;2024-03-02T02:07:51;40.8;;;27.0;;
41229;SDS011;26964;50.428;19.218;2024-03-02T02:08:51;45.5;;;28.3;;
41229;SDS011;26964;50.428;19.218;2024-03-02T02:09:51;45.2;;;28.7;;
41229;SDS011;26964;50.428;19.218;2024-03-02T02:10:52;48.6;;;30.7;;
41229;SDS011;26964;50.428;19.218;2024-03-02T02:11:51;50.0;;;31.2;;
41229;SDS011;26964;50.428;19.218;2024-03-02T02:12:51;47.1;;;31.2;;
41229;SDS011;26964;50.428;19.218;2024-03-02T02:13:52;44.8;;;27.2;;
41229;SDS011;26964;50.428;19.218;2024-03-02T02:14:51;41.3;;;27.2;;
41229;SDS011;26964;50.428;19.218;2024-03-02T02:15:52;44.7;;;27.6;;
41229;SDS011;26964;50.428;19.218;2024-03-02T02:16:51;44.1;;;29.1;;
41229;SDS011;26964;50.428;19.218;2024-03-02T02:17:52;44.7;;;28.5;;
41229;SDS011;26964;50.428;19.218;2024-03-02T02:18:51;44.2;;;27.1;;
41229;SDS011;26964;50.428;19.218;2024-03-02T02:19:51;45.8;;;30.4;;
41229;SDS011;26964;50.428;19.218;2024-03-02T02:20:52;50.1;;;30.7;;
41229;SDS011;26964;50.428;19.218;2024-03-02T02:21:51;49.1;;;30.4;;
41229;SDS011;26964;50.428;19.218;2024-03-02T02:23:54;49.4;;;31.4;;
41229;SDS011;26964;50.428;19.218;2024-03-02T02:24:52;49.5;;;32.1;;
41229;SDS011;26964;50.428;19.218;2024-03-02T02:25:52;49.3;;;29.1;;
41229;SDS011;26964;50.428;19.218;2024-03-02T02:26:51;47.4;;;28.7;;
41229;SDS011;26964;50.428;19.218;2024-03-02T02:27:52;43.6;;;28.6;;
41229;SDS011;26964;50.428;19.218;2024-03-02T02:28:51;53.9;;;34.4;;
41229;SDS011;26964;50.428;19.218;2024-03-02T02:29:51;48.8;;;32.0;;
41229;SDS011;26964;50.428;19.218;2024-03-02T02:30:52;46.7;;;29.0;;
41229;SDS011;26964;50.428;19.218;2024-03-02T02:31:51;77.8;;;46.7;;
41229;SDS011;26964;50.428;19.218;2024-03-02T02:32:51;49.5;;;31.5;;
41229;SDS011;26964;50.428;19.218;2024-03-02T02:33:51;51.8;;;32.6;;
41229;SDS011;26964;50.428;19.218;2024-03-02T02:34:52;62.9;;;38.0;;
41229;SDS011;26964;50.428;19.218;2024-03-02T02:35:52;42.2;;;26.8;;
41229;SDS011;26964;50.428;19.218;2024-03-02T02:36:51;43.4;;;27.8;;
41229;SDS011;26964;50.428;19.218;2024-03-02T02:37:52;42.4;;;27.6;;
41229;SDS011;26964;50.428;19.218;2024-03-02T02:38:51;39.3;;;24.7;;
41229;SDS011;26964;50.428;19.218;2024-03-02T02:39:51;40.1;;;25.9;;
41229;SDS011;26964;50.428;19.218;2024-03-02T02:40:52;39.7;;;25.2;;
41229;SDS011;26964;50.428;19.218;2024-03-02T02:41:51;42.4;;;26.2;;
41229;SDS011;26964;50.428;19.218;2024-03-02T02:42:51;42.7;;;26.3;;
41229;SDS011;26964;50.428;19.218;2024-03-02T02:43:52;43.8;;;26.6;;
41229;SDS011;26964;50.428;19.218;2024-03-02T02:44:55;40.2;;;26.4;;
41229;SDS011;26964;50.428;19.218;2024-03-02T02:45:52;45.9;;;26.8;;
41229;SDS011;26964;50.428;19.218;2024-03-02T02:46:52;40.2;;;24.8;;
41229;SDS011;26964;50.428;19.218;2024-03-02T02:47:51;38.6;;;24.0;;
41229;SDS011;26964;50.428;19.218;2024-03-02T02:48:51;36.5;;;24.0;;
41229;SDS011;26964;50.428;19.218;2024-03-02T02:49:51;35.7;;;23.5;;
41229;SDS011;26964;50.428;19.218;2024-03-02T02:50:52;36.0;;;23.1;;
41229;SDS011;26964;50.428;19.218;2024-03-02T02:51:51;38.0;;;24.8;;
41229;SDS011;26964;50.428;19.218;2024-03-02T02:52:51;38.6;;;25.2;;
41229;SDS011;26964;50.428;19.218;2024-03-02T02:53:51;38.1;;;25.1;;
41229;SDS011;26964;50.428;19.218;2024-03-02T02:54:51;37.2;;;23.8;;
41229;SDS011;26964;50.428;19.218;2024-03-02T02:55:52;39.0;;;25.5;;
41229;SDS011;26964;50.428;19.218;2024-03-02T02:56:51;35.6;;;24.0;;
41229;SDS011;26964;50.428;19.218;2024-03-02T02:57:51;36.2;;;23.4;;
41229;SDS011;26964;50.428;19.218;2024-03-02T02:58:51;34.8;;;22.7;;
41229;SDS011;26964;50.428;19.218;2024-03-02T02:59:51;34.9;;;23.5;;
41229;SDS011;26964;50.428;19.218;2024-03-02T03:00:52;36.1;;;24.1;;
41229;SDS011;26964;50.428;19.218;2024-03-02T03:01:51;40.0;;;24.9;;
41229;SDS011;26964;50.428;19.218;2024-03-02T03:02:51;35.2;;;24.0;;
41229;SDS011;26964;50.428;19.218;2024-03-02T03:03:51;36.5;;;23.2;;
41229;SDS011;26964;50.428;19.218;2024-03-02T03:04:52;34.3;;;23.2;;
41229;SDS011;26964;50.428;19.218;2024-03-02T03:05:51;40.4;;;25.8;;
41229;SDS011;26964;50.428;19.218;2024-03-02T03:06:51;39.5;;;25.0;;
41229;SDS011;26964;50.428;19.218;2024-03-02T03:07:51;43.8;;;27.0;;
41229;SDS011;26964;50.428;19.218;2024-03-02T03:08:52;39.2;;;26.5;;
41229;SDS011;26964;50.428;19.218;2024-03-02T03:09:51;43.6;;;27.2;;
41229;SDS011;26964;50.428;19.218;2024-03-02T03:10:52;45.6;;;27.2;;
41229;SDS011;26964;50.428;19.218;2024-03-02T03:11:51;37.9;;;25.7;;
41229;SDS011;26964;50.428;19.218;2024-03-02T03:12:51;46.4;;;26.6;;
41229;SDS011;26964;50.428;19.218;2024-03-02T03:13:52;44.6;;;27.2;;
41229;SDS011;26964;50.428;19.218;2024-03-02T03:14:51;43.5;;;27.1;;
41229;SDS011;26964;50.428;19.218;2024-03-02T03:15:52;43.5;;;27.3;;
41229;SDS011;26964;50.428;19.218;2024-03-02T03:16:51;42.3;;;27.4;;
41229;SDS011;26964;50.428;19.218;2024-03-02T03:17:52;64.1;;;38.4;;
41229;SDS011;26964;50.428;19.218;2024-03-02T03:18:55;251.8;;;133.3;;
41229;SDS011;26964;50.428;19.218;2024-03-02T03:19:52;181.7;;;97.8;;
41229;SDS011;26964;50.428;19.218;2024-03-02T03:20:51;109.1;;;59.5;;
41229;SDS011;26964;50.428;19.218;2024-03-02T03:21:51;52.7;;;32.8;;
41229;SDS011;26964;50.428;19.218;2024-03-02T03:22:51;39.6;;;25.4;;
41229;SDS011;26964;50.428;19.218;2024-03-02T03:23:51;39.9;;;25.6;;
41229;SDS011;26964;50.428;19.218;2024-03-02T03:24:51;35.7;;;24.8;;
41229;SDS011;26964;50.428;19.218;2024-03-02T03:25:53;37.6;;;25.1;;
41229;SDS011;26964;50.428;19.218;2024-03-02T03:26:51;39.7;;;27.1;;
41229;SDS011;26964;50.428;19.218;2024-03-02T03:27:51;45.0;;;26.0;;
41229;SDS011;26964;50.428;19.218;2024-03-02T03:28:51;37.7;;;23.5;;
41229;SDS011;26964;50.428;19.218;2024-03-02T03:29:51;37.3;;;23.5;;
41229;SDS011;26964;50.428;19.218;2024-03-02T03:30:52;37.5;;;24.9;;
41229;SDS011;26964;50.428;19.218;2024-03-02T03:31:51;36.3;;;22.8;;
41229;SDS011;26964;50.428;19.218;2024-03-02T03:32:51;36.5;;;23.5;;
41229;SDS011;26964;50.428;19.218;2024-03-02T03:33:51;36.5;;;22.9;;
41229;SDS011;26964;50.428;19.218;2024-03-02T03:34:51;34.9;;;22.1;;
41229;SDS011;26964;50.428;19.218;2024-03-02T03:35:51;34.4;;;22.7;;
41229;SDS011;26964;50.428;19.218;2024-03-02T03:36:51;36.6;;;24.0;;
41229;SDS011;26964;50.428;19.218;2024-03-02T03:37:51;34.3;;;22.2;;
41229;SDS011;26964;50.428;19.218;2024-03-02T03:38:51;35.6;;;24.5;;
41229;SDS011;26964;50.428;19.218;2024-03-02T03:39:51;40.6;;;24.9;;
41229;SDS011;26964;50.428;19.218;2024-03-02T03:40:51;38.9;;;25.4;;
41229;SDS011;26964;50.428;19.218;2024-03-02T03:41:51;35.0;;;23.4;;
41229;SDS011;26964;50.428;19.218;2024-03-02T03:42:51;35.7;;;22.8;;
41229;SDS011;26964;50.428;19.218;2024-03-02T03:43:51;35.2;;;23.6;;
41229;SDS011;26964;50.428;19.218;2024-03-02T03:44:51;33.2;;;23.4;;
41229;SDS011;26964;50.428;19.218;2024-03-02T03:45:51;36.7;;;22.5;;
41229;SDS011;26964;50.428;19.218;2024-03-02T03:46:53;36.6;;;22.5;;
41229;SDS011;26964;50.428;19.218;2024-03-02T03:47:51;30.8;;;21.3;;
41229;SDS011;26964;50.428;19.218;2024-03-02T03:48:51;35.5;;;22.5;;
41229;SDS011;26964;50.428;19.218;2024-03-02T03:49:51;35.8;;;23.5;;
41229;SDS011;26964;50.428;19.218;2024-03-02T03:50:51;35.1;;;22.8;;
41229;SDS011;26964;50.428;19.218;2024-03-02T03:51:51;31.3;;;21.0;;
41229;SDS011;26964;50.428;19.218;2024-03-02T03:52:51;34.4;;;21.7;;
41229;SDS011;26964;50.428;19.218;2024-03-02T03:53:51;30.8;;;20.9;;
41229;SDS011;26964;50.428;19.218;2024-03-02T03:54:51;33.3;;;21.3;;
41229;SDS011;26964;50.428;19.218;2024-03-02T03:55:51;34.1;;;22.4;;
41229;SDS011;26964;50.428;19.218;2024-03-02T03:56:51;35.5;;;22.7;;
41229;SDS011;26964;50.428;19.218;2024-03-02T03:57:51;34.9;;;22.7;;
41229;SDS011;26964;50.428;19.218;2024-03-02T03:58:51;37.9;;;22.6;;
41229;SDS011;26964;50.428;19.218;2024-03-02T03:59:51;34.0;;;21.2;;
41229;SDS011;26964;50.428;19.218;2024-03-02T04:00:51;31.4;;;21.4;;
41229;SDS011;26964;50.428;19.218;2024-03-02T04:01:51;34.1;;;22.3;;
41229;SDS011;26964;50.428;19.218;2024-03-02T04:02:51;32.4;;;21.7;;
41229;SDS011;26964;50.428;19.218;2024-03-02T04:03:51;33.1;;;21.1;;
41229;SDS011;26964;50.428;19.218;2024-03-02T04:04:51;34.0;;;22.2;;
41229;SDS011;26964;50.428;19.218;2024-03-02T04:05:51;33.8;;;22.9;;
41229;SDS011;26964;50.428;19.218;2024-03-02T04:06:51;44.0;;;27.3;;
41229;SDS011;26964;50.428;19.218;2024-03-02T04:07:53;55.1;;;33.6;;
41229;SDS011;26964;50.428;19.218;2024-03-02T04:08:51;36.8;;;24.6;;
41229;SDS011;26964;50.428;19.218;2024-03-02T04:09:51;37.1;;;23.2;;
41229;SDS011;26964;50.428;19.218;2024-03-02T04:10:51;32.3;;;21.6;;
41229;SDS011;26964;50.428;19.218;2024-03-02T04:11:51;36.8;;;23.9;;
41229;SDS011;26964;50.428;19.218;2024-03-02T04:12:51;34.0;;;22.2;;
41229;SDS011;26964;50.428;19.218;2024-03-02T04:13:51;34.1;;;23.1;;
41229;SDS011;26964;50.428;19.218;2024-03-02T04:14:51;31.0;;;20.6;;
41229;SDS011;26964;50.428;19.218;2024-03-02T04:15:51;35.5;;;22.0;;
41229;SDS011;26964;50.428;19.218;2024-03-02T04:16:51;33.7;;;21.0;;
41229;SDS011;26964;50.428;19.218;2024-03-02T04:17:51;44.8;;;34.0;;
41229;SDS011;26964;50.428;19.218;2024-03-02T04:18:51;40.1;;;30.2;;
41229;SDS011;26964;50.428;19.218;2024-03-02T04:19:51;36.1;;;23.9;;
41229;SDS011;26964;50.428;19.218;2024-03-02T04:20:51;35.6;;;23.6;;
41229;SDS011;26964;50.428;19.218;2024-03-02T04:21:51;37.4;;;22.0;;
41229;SDS011;26964;50.428;19.218;2024-03-02T04:22:51;30.9;;;21.6;;
41229;SDS011;26964;50.428;19.218;2024-03-02T04:23:51;32.7;;;22.0;;
41229;SDS011;26964;50.428;19.218;2024-03-02T04:24:51;34.6;;;21.8;;
41229;SDS011;26964;50.428;19.218;2024-03-02T04:25:51;38.5;;;23.1;;
41229;SDS011;26964;50.428;19.218;2024-03-02T04:26:51;29.7;;;20.3;;
41229;SDS011;26964;50.428;19.218;2024-03-02T04:27:51;31.1;;;20.7;;
41229;SDS011;26964;50.428;19.218;2024-03-02T04:28:53;30.1;;;19.6;;
41229;SDS011;26964;50.428;19.218;2024-03-02T04:29:51;29.9;;;20.0;;
41229;SDS011;26964;50.428;19.218;2024-03-02T04:30:51;30.6;;;18.9;;
41229;SDS011;26964;50.428;19.218;2024-03-02T04:31:51;29.3;;;20.4;;
41229;SDS011;26964;50.428;19.218;2024-03-02T04:32:51;28.7;;;18.7;;
41229;SDS011;26964;50.428;19.218;2024-03-02T04:33:51;28.4;;;17.8;;
41229;SDS011;26964;50.428;19.218;2024-03-02T04:34:51;29.8;;;18.3;;
41229;SDS011;26964;50.428;19.218;2024-03-02T04:35:51;30.8;;;19.3;;
41229;SDS011;26964;50.428;19.218;2024-03-02T04:36:51;32.0;;;19.0;;
41229;SDS011;26964;50.428;19.218;2024-03-02T04:37:51;29.8;;;17.6;;
41229;SDS011;26964;50.428;19.218;2024-03-02T04:38:51;29.1;;;18.2;;
41229;SDS011;26964;50.428;19.218;2024-03-02T04:39:51;29.3;;;17.9;;
41229;SDS011;26964;50.428;19.218;2024-03-02T04:40:51;29.0;;;17.8;;
41229;SDS011;26964;50.428;19.218;2024-03-02T04:41:51;30.7;;;18.0;;
41229;SDS011;26964;50.428;19.218;2024-03-02T04:42:51;27.8;;;17.8;;
41229;SDS011;26964;50.428;19.218;2024-03-02T04:43:51;27.6;;;18.4;;
41229;SDS011;26964;50.428;19.218;2024-03-02T04:44:51;30.2;;;19.8;;
41229;SDS011;26964;50.428;19.218;2024-03-02T04:45:51;31.8;;;20.0;;
41229;SDS011;26964;50.428;19.218;2024-03-02T04:46:51;36.2;;;22.9;;
41229;SDS011;26964;50.428;19.218;2024-03-02T04:47:51;34.4;;;21.5;;
41229;SDS011;26964;50.428;19.218;2024-03-02T04:48:51;35.1;;;22.8;;
41229;SDS011;26964;50.428;19.218;2024-03-02T04:49:53;36.2;;;23.4;;
41229;SDS011;26964;50.428;19.218;2024-03-02T04:50:51;37.3;;;23.6;;
41229;SDS011;26964;50.428;19.218;2024-03-02T04:51:51;36.9;;;23.7;;
41229;SDS011;26964;50.428;19.218;2024-03-02T04:52:51;37.9;;;23.2;;
41229;SDS011;26964;50.428;19.218;2024-03-02T04:53:51;36.9;;;23.3;;
41229;SDS011;26964;50.428;19.218;2024-03-02T04:54:51;33.2;;;22.8;;
41229;SDS011;26964;50.428;19.218;2024-03-02T04:55:51;36.9;;;24.6;;
41229;SDS011;26964;50.428;19.218;2024-03-02T04:56:51;45.3;;;26.9;;
41229;SDS011;26964;50.428;19.218;2024-03-02T04:57:51;41.1;;;26.7;;
41229;SDS011;26964;50.428;19.218;2024-03-02T04:58:51;43.2;;;26.2;;
41229;SDS011;26964;50.428;19.218;2024-03-02T04:59:51;41.1;;;24.9;;
41229;SDS011;26964;50.428;19.218;2024-03-02T05:00:51;39.8;;;25.1;;
41229;SDS011;26964;50.428;19.218;2024-03-02T05:01:51;38.9;;;24.2;;
41229;SDS011;26964;50.428;19.218;2024-03-02T05:02:51;36.9;;;23.7;;
41229;SDS011;26964;50.428;19.218;2024-03-02T05:03:51;33.5;;;22.6;;
41229;SDS011;26964;50.428;19.218;2024-03-02T05:04:51;32.4;;;22.0;;
41229;SDS011;26964;50.428;19.218;2024-03-02T05:05:51;32.9;;;21.6;;
41229;SDS011;26964;50.428;19.218;2024-03-02T05:06:51;34.6;;;21.5;;
41229;SDS011;26964;50.428;19.218;2024-03-02T05:07:51;31.3;;;20.3;;
41229;SDS011;26964;50.428;19.218;2024-03-02T05:08:51;32.7;;;20.1;;
41229;SDS011;26964;50.428;19.218;2024-03-02T05:09:51;30.5;;;19.8;;
41229;SDS011;26964;50.428;19.218;2024-03-02T05:10:54;29.9;;;19.5;;
41229;SDS011;26964;50.428;19.218;2024-03-02T05:11:51;32.7;;;20.9;;
41229;SDS011;26964;50.428;19.218;2024-03-02T05:12:51;31.1;;;20.7;;
41229;SDS011;26964;50.428;19.218;2024-03-02T05:13:51;33.1;;;21.7;;
41229;SDS011;26964;50.428;19.218;2024-03-02T05:14:51;33.8;;;21.5;;
41229;SDS011;26964;50.428;19.218;2024-03-02T05:15:51;32.7;;;20.6;;
41229;SDS011;26964;50.428;19.218;2024-03-02T05:16:51;29.8;;;19.2;;
41229;SDS011;26964;50.428;19.218;2024-03-02T05:17:51;28.8;;;19.5;;
41229;SDS011;26964;50.428;19.218;2024-03-02T05:18:51;33.3;;;20.6;;
41229;SDS011;26964;50.428;19.218;2024-03-02T05:19:51;30.8;;;20.1;;
41229;SDS011;26964;50.428;19.218;2024-03-02T05:20:51;31.7;;;20.6;;
41229;SDS011;26964;50.428;19.218;2024-03-02T05:21:51;30.8;;;19.6;;
41229;SDS011;26964;50.428;19.218;2024-03-02T05:22:51;30.0;;;20.5;;
41229;SDS011;26964;50.428;19.218;2024-03-02T05:23:51;29.5;;;20.5;;
41229;SDS011;26964;50.428;19.218;2024-03-02T05:24:51;29.9;;;20.3;;
41229;SDS011;26964;50.428;19.218;2024-03-02T05:25:51;31.6;;;21.2;;
41229;SDS011;26964;50.428;19.218;2024-03-02T05:26:51;29.8;;;20.4;;
41229;SDS011;26964;50.428;19.218;2024-03-02T05:27:51;31.0;;;19.9;;
41229;SDS011;26964;50.428;19.218;2024-03-02T05:28:51;32.1;;;20.6;;
41229;SDS011;26964;50.428;19.218;2024-03-02T05:29:51;30.8;;;20.9;;
41229;SDS011;26964;50.428;19.218;2024-03-02T05:30:51;29.7;;;20.2;;
41229;SDS011;26964;50.428;19.218;2024-03-02T05:31:54;29.6;;;20.1;;
41229;SDS011;26964;50.428;19.218;2024-03-02T05:32:51;30.8;;;20.4;;
41229;SDS011;26964;50.428;19.218;2024-03-02T05:33:51;30.6;;;21.4;;
41229;SDS011;26964;50.428;19.218;2024-03-02T05:34:51;31.8;;;20.6;;
41229;SDS011;26964;50.428;19.218;2024-03-02T05:35:51;28.7;;;20.2;;
41229;SDS011;26964;50.428;19.218;2024-03-02T05:36:51;30.1;;;20.1;;
41229;SDS011;26964;50.428;19.218;2024-03-02T05:37:51;30.3;;;20.5;;
41229;SDS011;26964;50.428;19.218;2024-03-02T05:38:51;32.8;;;21.2;;
41229;SDS011;26964;50.428;19.218;2024-03-02T05:39:51;32.2;;;20.0;;
41229;SDS011;26964;50.428;19.218;2024-03-02T05:40:51;29.2;;;19.2;;
41229;SDS011;26964;50.428;19.218;2024-03-02T05:41:51;32.4;;;21.4;;
41229;SDS011;26964;50.428;19.218;2024-03-02T05:42:51;31.1;;;19.8;;
41229;SDS011;26964;50.428;19.218;2024-03-02T05:43:51;31.6;;;20.9;;
41229;SDS011;26964;50.428;19.218;2024-03-02T05:44:51;33.2;;;21.4;;
41229;SDS011;26964;50.428;19.218;2024-03-02T05:45:51;30.1;;;20.7;;
41229;SDS011;26964;50.428;19.218;2024-03-02T05:46:51;33.4;;;21.9;;
41229;SDS011;26964;50.428;19.218;2024-03-02T05:47:51;30.8;;;20.8;;
41229;SDS011;26964;50.428;19.218;2024-03-02T05:48:51;33.3;;;19.9;;
41229;SDS011;26964;50.428;19.218;2024-03-02T05:49:51;32.8;;;19.6;;
41229;SDS011;26964;50.428;19.218;2024-03-02T05:50:51;30.5;;;20.5;;
41229;SDS011;26964;50.428;19.218;2024-03-02T05:51:51;37.7;;;21.7;;
41229;SDS011;26964;50.428;19.218;2024-03-02T05:52:54;34.9;;;22.8;;
41229;SDS011;26964;50.428;19.218;2024-03-02T05:53:51;33.1;;;22.4;;
41229;SDS011;26964;50.428;19.218;2024-03-02T05:54:51;33.2;;;22.3;;
41229;SDS011;26964;50.428;19.218;2024-03-02T05:55:51;30.5;;;20.1;;
41229;SDS011;26964;50.428;19.218;2024-03-02T05:56:51;34.7;;;21.5;;
41229;SDS011;26964;50.428;19.218;2024-03-02T05:57:51;34.7;;;21.9;;
41229;SDS011;26964;50.428;19.218;2024-03-02T05:58:51;31.0;;;21.2;;
41229;SDS011;26964;50.428;19.218;2024-03-02T05:59:51;31.5;;;21.6;;